createdAt,value
2022-11-17T05:05:15.051Z,-28.5
2022-11-17T05:07:16.320Z,-28.4
2022-11-17T05:11:19.554Z,-28.4
2022-11-17T05:13:20.990Z,-28.2
2022-11-17T05:17:23.865Z,-28.3
2022-11-17T05:19:25.081Z,-28.3
2022-11-17T05:21:26.457Z,-28.3
2022-11-17T05:23:27.832Z,-28.3
2022-11-17T05:27:31.059Z,-28.2
2022-11-17T05:29:32.652Z,-28.3
2022-11-17T05:31:33.951Z,-28.4
2022-11-17T05:33:37.847Z,-28.4
2022-11-17T05:37:38.276Z,-28.6
2022-11-17T05:39:40.062Z,-28.3
2022-11-17T05:43:42.748Z,-28.5
2022-11-17T05:45:43.975Z,-28.5
2022-11-17T05:47:45.797Z,-28.5
2022-11-17T05:49:47.287Z,-28.2
2022-11-17T05:51:52.633Z,-28.4
2022-11-17T05:55:52.182Z,-28.3
2022-11-17T05:57:53.466Z,-28.3
2022-11-17T05:59:55.322Z,-28.7
2022-11-17T06:01:56.507Z,-28.5
2022-11-17T06:03:57.569Z,-28
2022-11-17T06:05:58.713Z,-28.2
2022-11-17T06:10:00.787Z,-28.6
2022-11-17T06:12:05.780Z,-28.3
2022-11-17T06:14:04.228Z,-28.3
2022-11-17T06:16:05.940Z,-28.5
2022-11-17T06:18:07.583Z,-28.6
2022-11-17T06:20:08.702Z,-28.3
2022-11-17T06:22:12.500Z,-28.1
2022-11-17T06:24:11.936Z,-28
2022-11-17T06:26:13.470Z,-28.4
2022-11-17T06:28:14.822Z,-28
2022-11-17T06:30:16.013Z,-28.2
2022-11-17T06:32:17.697Z,-28.4
2022-11-17T06:34:19.480Z,-28.2
2022-11-17T06:36:20.613Z,-28.3
2022-11-17T06:38:21.957Z,-28.6
2022-11-17T06:42:25.739Z,-28.4
2022-11-17T06:44:26.847Z,-28.4
2022-11-17T06:46:28.670Z,-28.5
2022-11-17T06:48:29.692Z,-28.3
2022-11-17T06:49:13.528Z,-28.1
2022-11-17T06:53:17.098Z,-28.3
2022-11-17T06:55:18.911Z,-28.4
2022-11-17T06:57:20.333Z,-28.5
2022-11-17T06:59:22.192Z,-28.3
2022-11-17T07:01:24.005Z,-28.3
2022-11-17T07:03:25.065Z,-28.4
2022-11-17T07:05:26.009Z,-28.4
2022-11-17T07:07:27.189Z,-28.4
2022-11-17T07:09:28.220Z,-28.2
2022-11-17T07:11:29.143Z,-28.5
2022-11-17T07:13:30.663Z,-28.4
2022-11-17T07:15:32.137Z,-28.4
2022-11-17T07:17:33.850Z,-28.2
2022-11-17T07:19:34.971Z,-28.4
2022-11-17T07:21:36.270Z,-28.2
2022-11-17T07:25:38.809Z,-28.2
2022-11-17T07:27:40.584Z,-28.5
2022-11-17T07:29:41.574Z,-28.7
2022-11-17T07:31:43.204Z,-28.3
2022-11-17T07:33:44.945Z,-28.6
2022-11-17T07:35:46.793Z,-24
2022-11-17T07:37:48.544Z,-22.4
2022-11-17T07:39:49.739Z,-24.6
2022-11-17T07:41:50.795Z,-28.4
2022-11-17T07:47:55.275Z,-28.3
2022-11-17T07:49:57.077Z,-28.4
2022-11-17T07:51:58.575Z,-22.4
2022-11-17T07:54:09.378Z,81.6
2022-11-17T07:58:03.673Z,-11.2
2022-11-17T08:02:06.414Z,-18.7
2022-11-17T08:04:08.304Z,-21.1
2022-11-17T08:06:09.224Z,-28.3
2022-11-17T08:08:10.293Z,-28.3
2022-11-17T08:12:13.116Z,-28.3
2022-11-17T08:14:14.203Z,-28.5
2022-11-17T08:18:17.252Z,-21.7
2022-11-17T08:20:18.469Z,-28.4
2022-11-17T08:22:20.140Z,-28.2
2022-11-17T08:24:21.711Z,-25.9
2022-11-17T08:28:34.497Z,-26.6
2022-11-17T08:30:26.739Z,-28.3
2022-11-17T08:32:27.995Z,-28.2
2022-11-17T08:34:29.849Z,-23.9
2022-11-17T08:38:31.997Z,-9.8
2022-11-17T08:40:33.470Z,-3
2022-11-17T08:42:34.565Z,18.5
2022-11-17T08:44:35.780Z,-19.5
2022-11-17T08:46:37.038Z,-7.4
2022-11-17T08:48:39.056Z,18.4
2022-11-17T08:50:39.767Z,-9.7
2022-11-17T08:52:41.157Z,-10.4
2022-11-17T08:56:43.892Z,-12.2
2022-11-17T09:00:47.547Z,-17.9
2022-11-17T09:02:48.880Z,-25.1
2022-11-17T09:04:50.052Z,-28.3
2022-11-17T09:06:51.348Z,-28.3
2022-11-17T09:10:54.215Z,-28.5
2022-11-17T09:12:55.939Z,-28.4
2022-11-17T09:14:56.874Z,-28.2
2022-11-17T09:16:58.715Z,-9.6
2022-11-17T09:19:00.035Z,-9.8
2022-11-17T09:21:01.771Z,-12.4
2022-11-17T09:23:02.644Z,-11.4
2022-11-17T09:25:06.476Z,-11.3
2022-11-17T09:27:05.568Z,-7.6
2022-11-17T09:29:06.643Z,25.9
2022-11-17T09:31:08.553Z,52.8
2022-11-17T09:33:10.030Z,82
2022-11-17T09:35:11.519Z,28.3
2022-11-17T09:37:12.634Z,82.2
2022-11-17T09:39:13.892Z,82
2022-11-17T09:41:15.292Z,2.4
2022-11-17T09:43:16.294Z,-7.2
2022-11-17T09:45:17.878Z,-19.2
2022-11-17T09:47:19.046Z,-24.6
2022-11-17T09:49:19.955Z,-23.7
2022-11-17T09:51:21.712Z,-15.4
2022-11-17T09:55:28.481Z,-22.8
2022-11-17T09:57:26.882Z,-24.2
2022-11-17T09:59:27.984Z,-27.2
2022-11-17T10:01:29.477Z,-28.5
2022-11-17T10:03:30.489Z,-28.4
2022-11-17T10:05:31.771Z,-28.5
2022-11-17T10:09:34.332Z,-28.4
2022-11-17T10:11:35.949Z,-28.3
2022-11-17T10:13:38.106Z,-28.1
2022-11-17T10:15:39.347Z,-22.1
2022-11-17T10:17:41.185Z,-22.5
2022-11-17T10:19:42.942Z,-28.4
2022-11-17T10:21:43.941Z,-28.4
2022-11-17T10:23:47.195Z,-28.5
2022-11-17T10:25:47.048Z,-28.4
2022-11-17T10:27:47.962Z,-28.4
2022-11-17T10:31:50.603Z,-12.9
2022-11-17T10:33:51.736Z,-1.5
2022-11-17T10:35:53.559Z,-4.1
2022-11-17T10:37:54.782Z,-15.2
2022-11-17T10:39:56.642Z,-26.7
2022-11-17T10:41:58.054Z,-28.4
2022-11-17T10:43:59.948Z,-28.5
2022-11-17T10:46:00.860Z,-24.1
2022-11-17T10:48:02.212Z,-28.5
2022-11-17T10:54:06.594Z,-28.5
2022-11-17T10:56:07.967Z,-28.4
2022-11-17T10:58:09.562Z,-26.2
2022-11-17T11:00:10.573Z,-25.8
2022-11-17T11:02:11.544Z,-23
2022-11-17T11:04:12.599Z,-22.6
2022-11-17T11:08:15.250Z,-19.2
2022-11-17T11:10:16.596Z,-20.8
2022-11-17T11:12:18.464Z,-20
2022-11-17T11:14:19.352Z,-21.1
2022-11-17T11:20:23.626Z,-28.5
2022-11-17T11:22:24.888Z,-28.3
2022-11-17T11:24:26.471Z,-28.4
2022-11-17T11:26:27.777Z,-28.6
2022-11-17T11:28:28.797Z,-28.1
2022-11-17T11:30:30.010Z,-28.4
2022-11-17T11:32:31.208Z,-28.5
2022-11-17T11:34:32.982Z,-28.4
2022-11-17T11:36:34.308Z,-28.4
2022-11-17T11:38:35.284Z,-23.7
2022-11-17T11:40:36.409Z,-25.6
2022-11-17T11:42:37.652Z,-28
2022-11-17T11:44:38.585Z,-23.6
2022-11-17T11:46:40.065Z,-26.3
2022-11-17T11:48:41.576Z,-17.9
2022-11-17T11:50:42.732Z,-17.9
2022-11-17T11:52:44.446Z,-28.3
2022-11-17T11:54:50.526Z,-28.4
2022-11-17T11:56:47.523Z,-28.3
2022-11-17T11:58:49.450Z,-28.4
2022-11-17T12:00:51.017Z,-28.4
2022-11-17T12:02:52.742Z,-28.5
2022-11-17T12:06:54.934Z,-28.3
2022-11-17T12:08:56.504Z,-28.1
2022-11-17T12:10:57.821Z,-28.4
2022-11-17T12:12:59.127Z,-28.4
2022-11-17T12:15:00.200Z,-16.5
2022-11-17T12:19:02.446Z,-7.6
2022-11-17T12:21:04.325Z,-10.4
2022-11-17T12:23:06.092Z,-8.39
2022-11-17T12:25:07.598Z,9.2
2022-11-17T12:27:08.542Z,-8.7
2022-11-17T12:29:10.436Z,-9.3
2022-11-17T12:33:13.292Z,12.7
2022-11-17T12:35:14.453Z,24
2022-11-17T12:37:15.813Z,15.8
2022-11-17T12:39:17.178Z,23
2022-11-17T12:41:18.957Z,81.9
2022-11-17T12:43:20.520Z,81.69
2022-11-17T12:45:22.898Z,82
2022-11-17T12:47:24.544Z,82.2
2022-11-17T12:49:25.473Z,82
2022-11-17T12:51:26.666Z,2.2
2022-11-17T12:55:29.046Z,-16.1
2022-11-17T12:57:30.258Z,-10
2022-11-17T12:59:31.963Z,-7.3
2022-11-17T13:01:33.898Z,-16.5
2022-11-17T13:03:34.983Z,12.8
2022-11-17T13:05:36.681Z,17.79
2022-11-17T13:07:37.840Z,10.1
2022-11-17T13:09:39.012Z,-3.4
2022-11-17T13:11:40.195Z,-19.5
2022-11-17T13:17:44.249Z,11
2022-11-17T13:19:45.818Z,29.5
2022-11-17T13:21:47.295Z,82
2022-11-17T13:23:48.659Z,81.8
2022-11-17T13:25:50.373Z,81.6
2022-11-17T13:27:56.178Z,82
2022-11-17T13:31:54.432Z,82
2022-11-17T13:33:56.038Z,82
2022-11-17T13:34:39.786Z,26.3
2022-11-17T13:38:42.724Z,-16.29
2022-11-17T13:40:44.347Z,-28.2
2022-11-17T13:42:45.671Z,-28.7
2022-11-17T13:44:46.959Z,-27.3
2022-11-17T13:46:48.543Z,-23.4
2022-11-17T13:48:50.016Z,-19.1
2022-11-17T13:52:52.905Z,-8
2022-11-17T13:54:54.538Z,-18.2
2022-11-17T13:56:56.437Z,-15.3
2022-11-17T13:58:57.610Z,-18.7
2022-11-17T14:00:58.890Z,-26.2
2022-11-17T14:03:00.196Z,-27.6
2022-11-17T14:05:01.922Z,-28.3
2022-11-17T14:07:03.331Z,-28.4
2022-11-17T14:09:04.271Z,-28.6
2022-11-17T14:11:05.373Z,-28.3
2022-11-17T14:13:06.827Z,-28.5
2022-11-17T14:15:08.429Z,-28.4
2022-11-17T14:17:09.458Z,-28.4
2022-11-17T14:19:11.221Z,-28.3
2022-11-17T14:21:12.385Z,-28.4
2022-11-17T14:25:15.335Z,-28.4
2022-11-17T14:27:16.452Z,-28.2
2022-11-17T14:29:18.134Z,-28.5
2022-11-17T14:31:19.768Z,-28.4
2022-11-17T14:37:23.819Z,-28.8
2022-11-17T14:39:25.725Z,-28.6
2022-11-17T14:41:27.612Z,-28.3
2022-11-17T14:43:29.528Z,-28.5
2022-11-17T14:45:30.460Z,-28.3
2022-11-17T14:47:31.452Z,-28.4
2022-11-17T14:51:34.071Z,-28.4
2022-11-17T14:53:37.944Z,-28.4
2022-11-17T14:55:36.782Z,-28.5
2022-11-17T14:57:37.975Z,-28.4
2022-11-17T14:59:39.716Z,-28.1
2022-11-17T15:01:41.230Z,-28.8
2022-11-17T15:03:42.538Z,-28.5
2022-11-17T15:05:43.635Z,-28.5
2022-11-17T15:07:45.289Z,-28.3
2022-11-17T15:09:46.559Z,-28.4
2022-11-17T15:11:48.008Z,-28.6
2022-11-17T15:13:49.287Z,-28.4
2022-11-17T15:15:50.357Z,-28.4
2022-11-17T15:17:51.320Z,-28.6
2022-11-17T15:19:52.922Z,-28.4
2022-11-17T15:21:54.402Z,-28.4
2022-11-17T15:23:56.255Z,-28.3
2022-11-17T15:25:57.595Z,-28.4
2022-11-17T15:27:58.521Z,-28.3
2022-11-17T15:30:00.131Z,-28.3
2022-11-17T15:36:03.948Z,-28.5
2022-11-17T15:38:05.601Z,-28.4
2022-11-17T15:40:06.962Z,-28.4
2022-11-17T15:42:08.036Z,-28.4
2022-11-17T15:44:09.809Z,-28.3
2022-11-17T15:46:11.712Z,-28.3
2022-11-17T15:50:14.733Z,-28.2
2022-11-17T15:52:16.209Z,-28.4
2022-11-17T15:54:20.522Z,-28.3
2022-11-17T15:56:18.632Z,-28.3
2022-11-17T16:02:23.448Z,-28.3
2022-11-17T16:06:26.540Z,-28.5
2022-11-17T16:08:28.204Z,-28.7
2022-11-17T16:10:29.990Z,-28.5
2022-11-17T16:12:31.679Z,-28.6
2022-11-17T16:16:34.516Z,-28.4
2022-11-17T16:18:35.548Z,-28.2
2022-11-17T16:20:36.547Z,-28.5
2022-11-17T16:22:37.903Z,-28.5
2022-11-17T16:26:40.829Z,-28.5
2022-11-17T16:28:42.357Z,-28.6
2022-11-17T16:30:43.312Z,-28.4
2022-11-17T16:32:44.945Z,-28.4
2022-11-17T16:34:46.196Z,-28.5
2022-11-17T16:36:47.203Z,-28.5
2022-11-17T16:39:00.189Z,-28.3
2022-11-17T16:40:50.735Z,-28.4
2022-11-17T16:44:53.625Z,-28.5
2022-11-17T16:48:56.354Z,-28.2
2022-11-17T16:50:57.926Z,-28.4
2022-11-17T16:52:58.931Z,-28.5
2022-11-17T16:55:04.498Z,-28.3
2022-11-17T16:59:03.552Z,-28.4
2022-11-17T17:01:08.290Z,-28.2
2022-11-17T17:03:06.278Z,-28.4
2022-11-17T17:05:07.403Z,-28.7
2022-11-17T17:07:08.841Z,-28.6
2022-11-17T17:09:09.911Z,-28.2
2022-11-17T17:11:11.552Z,-28.3
2022-11-17T17:13:12.522Z,-28.6
2022-11-17T17:15:14.469Z,-28.3
2022-11-17T17:17:15.858Z,-28.4
2022-11-17T17:19:17.664Z,-28.4
2022-11-17T17:21:19.322Z,-28.4
2022-11-17T17:23:20.359Z,-28.5
2022-11-17T17:25:22.044Z,-28.2
2022-11-17T17:27:23.849Z,-28.6
2022-11-17T17:29:25.685Z,-28.5
2022-11-17T17:31:26.688Z,-28.3
2022-11-17T17:33:28.047Z,-28.4
2022-11-17T17:35:29.893Z,-28.7
2022-11-17T17:37:31.759Z,-28.4
2022-11-17T17:39:32.963Z,-28.2
2022-11-17T17:43:35.606Z,-28.3
2022-11-17T17:45:37.485Z,-28.3
2022-11-17T17:47:39.243Z,-28.4
2022-11-17T17:49:40.412Z,-28.6
2022-11-17T17:51:41.743Z,-28.6
2022-11-17T17:53:42.735Z,-28.6
2022-11-17T17:57:46.243Z,-28.3
2022-11-17T17:59:47.745Z,-28.5
2022-11-17T18:01:48.829Z,-28.3
2022-11-17T18:03:50.628Z,-28.5
2022-11-17T18:05:52.367Z,-28.2
2022-11-17T18:07:54.006Z,-28.5
2022-11-17T18:09:55.178Z,-28.4
2022-11-17T18:11:56.328Z,-28.2
2022-11-17T18:13:57.685Z,-28.5
2022-11-17T18:15:59.503Z,-28.5
2022-11-17T18:20:02.373Z,-28.3
2022-11-17T18:22:04.102Z,-28.4
2022-11-17T18:24:05.069Z,-28.4
2022-11-17T18:26:06.246Z,-28.5
2022-11-17T18:28:07.954Z,-28.6
2022-11-17T18:30:09.523Z,-28.4
2022-11-17T18:32:10.524Z,-28.4
2022-11-17T18:34:12.297Z,-28.7
2022-11-17T18:36:13.877Z,-28.4
2022-11-17T18:42:18.825Z,-28.4
2022-11-17T18:44:20.165Z,-28.6
2022-11-17T18:46:21.913Z,-28.4
2022-11-17T18:48:23.251Z,-28.4
2022-11-17T18:50:24.824Z,-28.2
2022-11-17T18:52:31.216Z,-28.6
2022-11-17T18:56:29.580Z,-28.3
2022-11-17T18:58:31.452Z,-28.2
2022-11-17T19:02:35.135Z,-28.6
2022-11-17T19:04:36.463Z,-28.4
2022-11-17T19:06:38.283Z,-28.2
2022-11-17T19:08:40.062Z,-28.1
2022-11-17T19:12:42.627Z,-28.3
2022-11-17T19:14:44.082Z,-28.3
2022-11-17T19:16:45.729Z,-28.5
2022-11-17T19:18:47.476Z,-28.5
2022-11-17T19:24:51.344Z,-28.4
2022-11-17T19:26:52.867Z,-28.5
2022-11-17T19:28:54.795Z,-28.4
2022-11-17T19:30:56.104Z,-28.4
2022-11-17T19:32:57.129Z,-28.2
2022-11-17T19:35:06.513Z,-28.6
2022-11-17T19:39:01.299Z,-28.3
2022-11-17T19:41:03.022Z,-28.3
2022-11-17T19:43:04.396Z,-28.6
2022-11-17T19:45:05.829Z,-28.4
2022-11-17T19:51:10.539Z,-28.1
2022-11-17T19:53:12.406Z,-28.5
2022-11-17T19:55:14.279Z,-28.5
2022-11-17T19:57:16.029Z,-28.6
2022-11-17T19:59:17.942Z,-28.4
2022-11-17T20:01:19.213Z,-28.6
2022-11-17T20:03:20.528Z,-28.4
2022-11-17T20:05:21.886Z,-28.5
2022-11-17T20:07:23.229Z,-28.6
2022-11-17T20:09:24.368Z,-28.5
2022-11-17T20:11:25.603Z,-28.6
2022-11-17T20:13:26.935Z,-28.5
2022-11-17T20:15:34.121Z,-28.4
2022-11-17T20:17:29.477Z,-28.5
2022-11-17T20:19:30.667Z,-28.4
2022-11-17T20:22:15.866Z,-28.5
2022-11-17T20:24:17.763Z,-28.4
2022-11-17T20:26:19.461Z,-28.3
2022-11-17T20:28:21.180Z,-28.6
2022-11-17T20:32:23.669Z,-28.4
2022-11-17T20:34:25.600Z,-28.3
2022-11-17T20:36:26.958Z,-28.3
2022-11-17T20:38:28.762Z,-28.5
2022-11-17T20:44:33.488Z,-28.6
2022-11-17T20:46:34.823Z,-28.3
2022-11-17T20:48:36.639Z,-28.4
2022-11-17T20:50:38.358Z,-28.5
2022-11-17T20:52:39.474Z,-28.4
2022-11-17T20:54:40.479Z,-27.9
2022-11-17T20:56:42.053Z,-28.6
2022-11-17T20:58:43.565Z,-28.3
2022-11-17T21:00:45.370Z,-28
2022-11-17T21:02:46.335Z,-28.5
2022-11-17T21:04:47.516Z,-28.4
2022-11-17T21:06:49.410Z,-28.4
2022-11-17T21:08:50.641Z,-28.3
2022-11-17T21:10:52.420Z,-28.5
2022-11-17T21:12:53.678Z,-28.2
2022-11-17T21:14:55.069Z,-28.4
2022-11-17T21:16:56.500Z,-28.1
2022-11-17T21:20:59.792Z,-28.6
2022-11-17T21:23:01.508Z,-28.3
2022-11-17T21:25:03.371Z,-28.6
2022-11-17T21:27:04.484Z,-28.4
2022-11-17T21:29:06.608Z,-28.2
2022-11-17T21:31:07.079Z,-28.4
2022-11-17T21:33:08.412Z,-28.2
2022-11-17T21:35:10.141Z,-28.2
2022-11-17T21:37:12.074Z,-28.6
2022-11-17T21:41:14.973Z,-27.9
2022-11-17T21:43:16.069Z,-28.2
2022-11-17T21:45:17.639Z,-28.3
2022-11-17T21:47:19.291Z,-28.4
2022-11-17T21:49:20.699Z,-28.3
2022-11-17T21:51:22.513Z,-28.5
2022-11-17T21:53:23.732Z,-28.6
2022-11-17T21:55:25.372Z,-28.5
2022-11-17T21:57:26.575Z,-28.2
2022-11-17T21:59:27.581Z,-28.3
2022-11-17T22:01:29.019Z,-28.4
2022-11-17T22:03:29.904Z,-28.5
2022-11-17T22:05:30.887Z,-28.3
2022-11-17T22:07:32.615Z,-28.3
2022-11-17T22:09:33.994Z,-28.3
2022-11-17T22:11:35.970Z,-28.5
2022-11-17T22:13:37.303Z,-28.6
2022-11-17T22:15:38.734Z,-28.4
2022-11-17T22:17:40.062Z,-28.4
2022-11-17T22:19:41.209Z,-28.2
2022-11-17T22:21:43.100Z,-28.4
2022-11-17T22:23:44.654Z,-28.2
2022-11-17T22:25:46.210Z,-28.2
2022-11-17T22:27:47.908Z,-28.3
2022-11-17T22:29:49.798Z,-28.3
2022-11-17T22:31:51.644Z,-28.3
2022-11-17T22:33:52.731Z,-28.3
2022-11-17T22:35:53.763Z,-28.4
2022-11-17T22:37:55.201Z,-28.5
2022-11-17T22:41:57.349Z,-28.5
2022-11-17T22:43:59.170Z,-28.3
2022-11-17T22:46:00.830Z,-28.5
2022-11-17T22:48:01.845Z,-28.4
2022-11-17T22:50:03.768Z,-28.3
2022-11-17T22:52:04.777Z,-28.4
2022-11-17T22:56:07.278Z,-28.4
2022-11-17T22:58:08.508Z,-28.5
2022-11-17T23:00:09.699Z,-28.5
2022-11-17T23:02:11.361Z,-28.3
2022-11-17T23:04:12.493Z,-28.3
2022-11-17T23:06:13.518Z,-28.3
2022-11-17T23:08:15.324Z,-28.4
2022-11-17T23:10:17.041Z,-28
2022-11-17T23:12:18.775Z,-28.3
2022-11-17T23:14:20.484Z,-28.2
2022-11-17T23:18:23.765Z,-28.3
2022-11-17T23:20:25.256Z,-28.2
2022-11-17T23:22:27.097Z,-28.3
2022-11-17T23:24:28.062Z,-28.5
2022-11-17T23:28:30.715Z,-28.1
2022-11-17T23:30:32.090Z,-28.5
2022-11-17T23:32:33.688Z,-28.5
2022-11-17T23:34:34.740Z,-28.3
2022-11-17T23:36:36.014Z,-28.3
2022-11-17T23:40:38.581Z,-28.2
2022-11-17T23:42:42.821Z,-28.3
2022-11-17T23:44:41.466Z,-28.4
2022-11-17T23:48:44.706Z,-28.4
2022-11-17T23:50:46.158Z,-28.3
2022-11-17T23:54:48.432Z,-28.6
2022-11-17T23:56:49.560Z,-28.3
2022-11-17T23:58:50.798Z,-28.4
